Time;durP1;ratioP1;P1;durP2;ratioP2;P2;SDS_P1;SDS_P2;PMS_P1;PMS_P2;Temp;Humidity;BMP_temperature;BMP_pressure;BME280_temperature;BME280_humidity;BME280_pressure;Samples;Min_cycle;Max_cycle;Signal;HPM_P1;HPM_P2
2022/01/29 00:02:12;;;;;;;;;;;7.00;99.90;;;;;;6164250;23;19911;-86
2022/01/29 00:04:40;;;;;;;;;;;7.10;99.90;;;;;;6189591;22;20002;-86
2022/01/29 00:07:09;;;;;;;;;;;7.10;99.90;;;;;;6164853;23;19912;-85
2022/01/29 00:09:38;;;;;;;;;;;7.10;99.90;;;;;;6188619;23;19934;-86
2022/01/29 00:12:07;;;;;;;;;;;7.10;99.90;;;;;;6187028;23;19922;-85
2022/01/29 00:14:33;;;;;;;;;;;7.10;99.90;;;;;;6189349;23;19986;-85
2022/01/29 00:17:01;;;;;;;;;;;7.10;99.90;;;;;;6161527;23;20352;-86
2022/01/29 00:19:27;;;;;;;;;;;7.10;99.90;;;;;;6160596;23;20325;-85
2022/01/29 00:21:52;;;;;;;;;;;7.10;99.90;;;;;;6163957;23;19926;-86
2022/01/29 00:24:38;;;;;;;;;;;7.10;99.90;;;;;;6163487;23;19918;-85
2022/01/29 00:27:09;;;;;;;;;;;7.10;99.90;;;;;;6162631;23;19919;-86
2022/01/29 00:29:39;;;;;;;;;;;7.00;99.90;;;;;;6188102;23;19915;-85
2022/01/29 00:32:05;;;;;;;;;;;7.00;99.90;;;;;;6164575;23;19966;-87
2022/01/29 00:34:31;;;;;;;;;;;7.10;99.90;;;;;;6187015;23;20332;-85
2022/01/29 00:37:05;;;;;;;;;;;7.00;99.90;;;;;;6163639;23;19925;-85
2022/01/29 00:39:40;;;;;;;;;;;7.00;99.90;;;;;;6165229;23;19915;-85
2022/01/29 00:42:08;;;;;;;;;;;7.00;99.90;;;;;;6186849;23;19918;-86
2022/01/29 00:44:34;;;;;;;;;;;7.00;99.90;;;;;;6212745;23;19990;-85
2022/01/29 00:47:00;;;;;;;;;;;7.00;99.90;;;;;;6161918;23;19921;-86
2022/01/29 00:49:25;;;;;;;;;;;7.00;99.90;;;;;;6162747;23;19919;-84
2022/01/29 00:51:51;;;;;;;;;;;6.90;99.90;;;;;;6162299;23;20296;-85
2022/01/29 00:54:17;;;;;;;;;;;7.00;99.90;;;;;;6186339;23;20538;-87
2022/01/29 00:56:42;;;;;;;;;;;6.90;99.90;;;;;;6184469;23;20348;-86
2022/01/29 00:59:08;;;;;;;;;;;6.90;99.90;;;;;;6161012;23;19911;-85
2022/01/29 01:01:37;;;;;;;;;;;6.90;99.90;;;;;;6182979;23;20348;-86
2022/01/29 01:04:29;;;;;;;;;;;6.90;99.90;;;;;;6161501;23;19912;-86
2022/01/29 01:07:11;;;;;;;;;;;6.80;99.90;;;;;;6213973;23;19959;-85
2022/01/29 01:09:37;;;;;;;;;;;6.90;99.90;;;;;;6185600;23;19911;-87
2022/01/29 01:12:03;;;;;;;;;;;6.80;99.90;;;;;;6162199;23;19921;-84
2022/01/29 01:14:36;;;;;;;;;;;6.80;99.90;;;;;;6186481;23;19911;-85
2022/01/29 01:17:15;;;;;;;;;;;;;;;;;;;;;
2022/01/29 01:19:47;;;;;;;;;;;6.80;99.90;;;;;;6210685;23;20288;-84
2022/01/29 01:22:20;;;;;;;;;;;6.80;99.90;;;;;;6184685;23;19911;-87
2022/01/29 01:24:53;;;;;;;;;;;6.80;99.90;;;;;;6187129;22;19942;-86
2022/01/29 01:27:20;;;;;;;;;;;6.80;99.90;;;;;;6184799;23;19915;-86
2022/01/29 01:30:04;;;;;;;;;;;;;;;;;;;;;
2022/01/29 01:32:30;;;;;;;;;;;6.70;99.90;;;;;;6187487;23;19989;-86
2022/01/29 01:35:09;;;;;;;;;;;6.70;99.90;;;;;;6161619;22;19946;-87
2022/01/29 01:37:50;;;;;;;;;;;6.80;99.90;;;;;;6186458;23;19926;-85
2022/01/29 01:40:25;;;;;;;;;;;;;;;;;;;;;
2022/01/29 01:43:01;;;;;;;;;;;6.70;99.90;;;;;;6188923;23;19970;-86
2022/01/29 01:45:30;;;;;;;;;;;6.70;99.90;;;;;;6187223;23;20275;-84
2022/01/29 01:48:07;;;;;;;;;;;6.80;99.90;;;;;;6201089;23;19947;-87
2022/01/29 01:51:01;;;;;;;;;;;6.80;99.90;;;;;;6197002;23;19915;-88
2022/01/29 01:53:34;;;;;;;;;;;6.80;99.90;;;;;;6185968;23;20118;-85
2022/01/29 01:56:44;;;;;;;;;;;6.80;99.90;;;;;;6187465;23;20022;-86
2022/01/29 01:59:11;;;;;;;;;;;6.80;99.90;;;;;;6185761;23;19912;-86
2022/01/29 02:01:37;;;;;;;;;;;6.80;99.90;;;;;;6185905;23;19916;-86
2022/01/29 02:04:06;;;;;;;;;;;6.80;99.90;;;;;;6185865;23;19915;-88
2022/01/29 02:06:41;;;;;;;;;;;6.80;99.90;;;;;;6188035;23;19911;-86
2022/01/29 02:09:14;;;;;;;;;;;6.80;99.90;;;;;;6187813;23;19915;-85
2022/01/29 02:12:03;;;;;;;;;;;6.80;99.90;;;;;;6185788;23;20386;-86
2022/01/29 02:14:33;;;;;;;;;;;6.80;99.90;;;;;;6186530;23;19946;-86
2022/01/29 02:17:09;;;;;;;;;;;6.80;99.90;;;;;;6185381;23;20305;-87
2022/01/29 02:19:37;;;;;;;;;;;6.90;99.90;;;;;;6186012;23;19911;-86
2022/01/29 02:22:03;;;;;;;;;;;6.90;99.90;;;;;;6185319;23;20226;-88
2022/01/29 02:24:36;;;;;;;;;;;6.90;99.90;;;;;;6185205;23;19911;-90
2022/01/29 02:27:05;;;;;;;;;;;6.90;99.90;;;;;;6186173;23;19990;-87
2022/01/29 02:29:37;;;;;;;;;;;6.90;99.90;;;;;;6187976;23;19946;-86
2022/01/29 02:32:04;;;;;;;;;;;6.90;99.90;;;;;;6186385;23;19958;-88
2022/01/29 02:34:31;;;;;;;;;;;6.90;99.90;;;;;;6185243;23;19911;-86
2022/01/29 02:37:00;;;;;;;;;;;7.00;99.90;;;;;;6185440;23;19927;-84
2022/01/29 02:39:36;;;;;;;;;;;6.90;99.90;;;;;;6164299;23;20197;-88
2022/01/29 02:42:05;;;;;;;;;;;6.90;99.90;;;;;;6160323;23;19946;-88
2022/01/29 02:44:33;;;;;;;;;;;7.00;99.90;;;;;;6185564;23;20307;-86
2022/01/29 02:50:00;;;;;;;;;;;7.00;99.90;;;;;;6157683;23;20225;-86
2022/01/29 02:52:26;;;;;;;;;;;7.10;99.90;;;;;;6184892;23;19912;-87
2022/01/29 02:54:58;;;;;;;;;;;7.10;99.90;;;;;;6185091;22;19911;-87
2022/01/29 02:57:26;;;;;;;;;;;7.10;99.90;;;;;;6157239;23;19916;-85
2022/01/29 03:00:00;;;;;;;;;;;7.10;99.90;;;;;;6212549;23;20348;-86
2022/01/29 03:02:32;;;;;;;;;;;7.20;99.90;;;;;;6236974;23;19915;-86
2022/01/29 03:05:00;;;;;;;;;;;7.20;99.90;;;;;;6208799;23;19955;-88
2022/01/29 03:07:30;;;;;;;;;;;7.20;99.90;;;;;;6162310;23;19936;-86
2022/01/29 03:09:56;;;;;;;;;;;7.20;99.90;;;;;;6153257;23;19912;-86
2022/01/29 03:12:33;;;;;;;;;;;7.20;99.90;;;;;;6210184;23;19911;-88
2022/01/29 03:15:18;;;;;;;;;;;7.20;99.90;;;;;;6185530;23;19949;-86
2022/01/29 03:17:44;;;;;;;;;;;7.20;99.90;;;;;;6185755;23;20217;-87
2022/01/29 03:20:10;;;;;;;;;;;7.30;99.90;;;;;;6161627;23;19963;-86
2022/01/29 03:22:36;;;;;;;;;;;7.30;99.90;;;;;;6184733;23;19973;-87
2022/01/29 03:25:03;;;;;;;;;;;7.30;99.90;;;;;;6184708;23;20352;-86
2022/01/29 03:27:29;;;;;;;;;;;7.30;99.90;;;;;;6185132;23;20249;-88
2022/01/29 03:29:58;;;;;;;;;;;7.30;99.90;;;;;;6186012;23;19916;-87
2022/01/29 03:32:44;;;;;;;;;;;7.40;99.90;;;;;;6160379;23;19931;-87
2022/01/29 03:35:21;;;;;;;;;;;7.40;99.90;;;;;;6184589;23;19923;-86
2022/01/29 03:37:50;;;;;;;;;;;7.40;99.90;;;;;;6160321;23;20347;-87
2022/01/29 03:40:36;;;;;;;;;;;7.40;99.90;;;;;;6184429;23;19943;-84
2022/01/29 03:43:09;;;;;;;;;;;7.50;99.90;;;;;;6184218;23;19912;-88
2022/01/29 03:45:38;;;;;;;;;;;7.40;99.90;;;;;;6161695;23;20690;-85
2022/01/29 03:48:06;;;;;;;;;;;7.50;99.90;;;;;;6185666;23;19922;-87
2022/01/29 03:50:32;;;;;;;;;;;7.50;99.90;;;;;;6160510;23;19933;-86
2022/01/29 03:53:15;;;;;;;;;;;7.50;99.90;;;;;;6186223;23;19986;-87
2022/01/29 03:56:08;;;;;;;;;;;7.60;99.90;;;;;;6173541;23;19994;-85
2022/01/29 03:58:45;;;;;;;;;;;7.60;99.90;;;;;;6166075;23;19915;-86
2022/01/29 04:01:11;;;;;;;;;;;7.70;99.90;;;;;;6186202;23;19912;-85
2022/01/29 04:03:36;;;;;;;;;;;7.70;99.90;;;;;;6184953;23;19957;-86
2022/01/29 04:06:16;;;;;;;;;;;7.70;99.90;;;;;;6181930;23;20294;-85
2022/01/29 04:08:43;;;;;;;;;;;7.80;99.90;;;;;;6185112;23;19911;-88
2022/01/29 04:11:15;;;;;;;;;;;7.80;99.90;;;;;;6210126;23;19919;-84
2022/01/29 04:14:16;;;;;;;;;;;7.80;99.90;;;;;;6185532;23;19950;-88
2022/01/29 04:16:48;;;;;;;;;;;7.80;99.90;;;;;;6160269;23;19919;-87
2022/01/29 04:19:16;;;;;;;;;;;7.80;99.90;;;;;;6184999;23;20340;-85
2022/01/29 04:21:51;;;;;;;;;;;7.90;99.90;;;;;;6184509;23;19915;-86
2022/01/29 04:24:17;;;;;;;;;;;7.90;99.90;;;;;;6234848;23;19990;-86
2022/01/29 04:26:44;;;;;;;;;;;7.90;99.90;;;;;;6186175;23;20225;-88
2022/01/29 04:29:11;;;;;;;;;;;7.90;99.90;;;;;;6167360;23;20273;-86
2022/01/29 04:32:06;;;;;;;;;;;7.90;99.90;;;;;;6196990;23;19927;-85
2022/01/29 04:37:17;;;;;;;;;;;8.00;99.90;;;;;;6213624;23;20006;-87
2022/01/29 04:39:46;;;;;;;;;;;8.00;99.90;;;;;;6187571;23;19996;-86
2022/01/29 04:42:17;;;;;;;;;;;8.00;99.90;;;;;;6187354;23;19915;-88
2022/01/29 04:45:09;;;;;;;;;;;7.90;99.90;;;;;;6164191;22;19930;-87
2022/01/29 04:47:43;;;;;;;;;;;8.00;99.90;;;;;;6185237;23;19954;-87
2022/01/29 04:50:18;;;;;;;;;;;8.00;99.90;;;;;;6189861;23;19915;-88
2022/01/29 04:52:50;;;;;;;;;;;8.00;99.90;;;;;;6189612;23;19915;-87
2022/01/29 04:55:38;;;;;;;;;;;8.00;99.90;;;;;;6187699;23;19911;-85
2022/01/29 04:58:23;;;;;;;;;;;8.10;99.90;;;;;;6187691;23;19915;-87
2022/01/29 05:01:09;;;;;;;;;;;8.00;99.90;;;;;;6163129;23;20304;-86
2022/01/29 05:03:43;;;;;;;;;;;8.10;99.90;;;;;;6186635;23;19919;-85
2022/01/29 05:06:15;;;;;;;;;;;8.10;99.90;;;;;;6186663;23;20282;-86
2022/01/29 05:08:44;;;;;;;;;;;8.10;99.90;;;;;;6186297;23;19912;-87
2022/01/29 05:11:30;;;;;;;;;;;8.10;99.90;;;;;;6186904;23;20297;-87
2022/01/29 05:14:06;;;;;;;;;;;8.10;99.90;;;;;;6191839;22;19957;-87
2022/01/29 05:16:55;;;;;;;;;;;8.10;99.90;;;;;;6255514;22;19922;-89
2022/01/29 05:27:33;;;;;;;;;;;8.10;99.90;;;;;;6211958;23;19919;-85
2022/01/29 05:30:02;;;;;;;;;;;8.10;99.90;;;;;;6187712;23;20248;-86
2022/01/29 05:32:28;;;;;;;;;;;8.10;99.90;;;;;;6185927;23;19973;-85
2022/01/29 05:35:03;;;;;;;;;;;8.20;99.90;;;;;;6186773;22;19915;-88
2022/01/29 05:37:34;;;;;;;;;;;8.20;99.90;;;;;;6187661;23;19919;-88
2022/01/29 05:40:01;;;;;;;;;;;8.20;99.90;;;;;;6162284;23;19954;-88
2022/01/29 05:42:29;;;;;;;;;;;8.20;99.90;;;;;;6187356;23;19915;-86
2022/01/29 05:45:04;;;;;;;;;;;8.20;99.90;;;;;;6187568;22;19947;-91
2022/01/29 05:47:40;;;;;;;;;;;;;;;;;;;;;
2022/01/29 05:50:07;;;;;;;;;;;8.20;99.90;;;;;;6212746;23;20328;-86
2022/01/29 05:52:32;;;;;;;;;;;8.20;99.90;;;;;;6218861;22;19915;-84
2022/01/29 05:55:10;;;;;;;;;;;8.30;99.90;;;;;;6240474;22;19915;-84
2022/01/29 05:57:41;;;;;;;;;;;8.20;99.90;;;;;;6214812;22;19919;-85
2022/01/29 06:00:13;;;;;;;;;;;8.30;99.90;;;;;;6191434;22;19938;-84
2022/01/29 06:02:49;;;;;;;;;;;;;;;;;;;;;
2022/01/29 06:05:20;;;;;;;;;;;8.30;99.90;;;;;;6228377;22;20012;-85
2022/01/29 06:07:49;;;;;;;;;;;8.30;99.90;;;;;;6203196;22;19915;-85
2022/01/29 06:10:59;;;;;;;;;;;8.30;99.90;;;;;;6211182;22;20298;-87
2022/01/29 06:13:32;;;;;;;;;;;8.30;99.90;;;;;;6215517;22;19941;-85
2022/01/29 06:16:03;;;;;;;;;;;8.30;99.90;;;;;;6214006;22;19915;-88
2022/01/29 06:18:31;;;;;;;;;;;8.30;99.90;;;;;;6216206;22;19915;-85
2022/01/29 06:21:13;;;;;;;;;;;8.30;99.90;;;;;;6215022;22;19961;-84
2022/01/29 06:23:39;;;;;;;;;;;8.30;99.90;;;;;;6214496;22;19915;-88
2022/01/29 06:26:58;;;;;;;;;;;8.30;99.90;;;;;;6216287;22;19961;-85
2022/01/29 06:29:10;;;;;;;;;;;8.40;99.90;;;;;;6231075;22;20162;-82
2022/01/29 06:31:36;;;;;;;;;;;8.30;99.90;;;;;;6215480;22;20380;-85
2022/01/29 06:34:04;;;;;;;;;;;8.40;99.90;;;;;;6191117;22;19993;-84
2022/01/29 06:36:35;;;;;;;;;;;8.40;99.90;;;;;;6217484;22;19943;-84
2022/01/29 06:39:04;;;;;;;;;;;8.40;99.90;;;;;;6217957;22;20284;-84
2022/01/29 06:44:18;;;;;;;;;;;8.40;99.90;;;;;;6218310;22;20330;-86
2022/01/29 06:46:53;;;;;;;;;;;8.50;99.90;;;;;;6218515;22;19911;-84
2022/01/29 06:49:21;;;;;;;;;;;8.50;99.90;;;;;;6191516;22;19911;-83
2022/01/29 06:51:56;;;;;;;;;;;8.60;99.90;;;;;;6213897;22;20158;-89
2022/01/29 06:54:24;;;;;;;;;;;8.60;99.90;;;;;;6191503;22;19982;-84
2022/01/29 06:56:52;;;;;;;;;;;8.60;99.90;;;;;;6189770;22;19915;-84
2022/01/29 06:59:18;;;;;;;;;;;8.60;99.90;;;;;;6188922;22;19965;-83
2022/01/29 07:01:51;;;;;;;;;;;8.60;99.90;;;;;;6214779;22;20294;-87
2022/01/29 07:04:25;;;;;;;;;;;8.60;99.90;;;;;;6214174;22;20241;-85
2022/01/29 07:09:41;;;;;;;;;;;8.70;99.90;;;;;;6203339;22;19911;-88
2022/01/29 07:12:10;;;;;;;;;;;8.70;99.90;;;;;;6215332;22;20211;-83
2022/01/29 07:14:43;;;;;;;;;;;8.70;99.90;;;;;;6213954;22;19915;-86
2022/01/29 07:17:17;;;;;;;;;;;8.70;99.90;;;;;;6214143;22;19941;-86
2022/01/29 07:19:43;;;;;;;;;;;8.70;99.90;;;;;;6214049;22;19936;-86
2022/01/29 07:22:09;;;;;;;;;;;8.80;99.90;;;;;;6219653;22;19915;-85
2022/01/29 07:24:44;;;;;;;;;;;8.80;99.90;;;;;;6215215;22;19915;-84
2022/01/29 07:40:45;;;;;;;;;;;8.70;99.90;;;;;;6216355;22;19975;-87
2022/01/29 07:43:11;;;;;;;;;;;8.70;99.90;;;;;;6136269;23;20296;-86
2022/01/29 07:45:37;;;;;;;;;;;8.70;99.90;;;;;;6173956;23;19920;-87
2022/01/29 07:48:02;;;;;;;;;;;8.70;99.90;;;;;;6166123;23;19943;-84
2022/01/29 07:50:28;;;;;;;;;;;8.70;99.90;;;;;;6167822;23;19919;-86
2022/01/29 07:52:54;;;;;;;;;;;8.70;99.90;;;;;;6166560;23;20331;-88
2022/01/29 07:55:32;;;;;;;;;;;8.80;99.90;;;;;;6171735;23;20245;-87
2022/01/29 07:57:58;;;;;;;;;;;8.60;99.90;;;;;;6191630;23;20386;-87
2022/01/29 08:00:24;;;;;;;;;;;8.60;99.90;;;;;;6192588;23;19926;-87
2022/01/29 08:02:50;;;;;;;;;;;8.60;99.90;;;;;;6166720;23;19915;-87
2022/01/29 08:05:16;;;;;;;;;;;8.60;99.90;;;;;;6191087;23;20391;-85
2022/01/29 08:07:47;;;;;;;;;;;8.70;99.90;;;;;;6166125;23;20464;-88
2022/01/29 08:10:18;;;;;;;;;;;8.60;99.90;;;;;;6167181;23;20014;-87
2022/01/29 08:12:44;;;;;;;;;;;8.60;99.90;;;;;;6165326;23;19998;-86
2022/01/29 08:15:15;;;;;;;;;;;8.60;99.90;;;;;;6166552;23;19951;-86
2022/01/29 08:17:44;;;;;;;;;;;8.60;99.90;;;;;;6192047;23;19916;-87
2022/01/29 08:20:12;;;;;;;;;;;8.70;99.90;;;;;;6192395;23;20363;-86
2022/01/29 08:22:38;;;;;;;;;;;8.70;99.90;;;;;;6190454;23;19939;-87
2022/01/29 08:25:09;;;;;;;;;;;8.70;99.90;;;;;;6192165;23;20003;-87
2022/01/29 08:27:44;;;;;;;;;;;8.70;99.90;;;;;;6167702;23;19943;-87
2022/01/29 08:30:19;;;;;;;;;;;8.70;99.90;;;;;;6193136;23;19930;-87
2022/01/29 08:32:47;;;;;;;;;;;8.80;99.90;;;;;;6191271;23;19926;-86
2022/01/29 08:35:22;;;;;;;;;;;8.80;99.90;;;;;;6190986;23;19916;-88
2022/01/29 08:37:48;;;;;;;;;;;8.80;99.90;;;;;;6191288;23;19927;-86
2022/01/29 08:40:14;;;;;;;;;;;8.90;99.90;;;;;;6163742;23;20183;-85
2022/01/29 08:42:39;;;;;;;;;;;8.90;99.90;;;;;;6160048;23;19951;-87
2022/01/29 08:45:06;;;;;;;;;;;8.90;99.90;;;;;;6186253;23;19922;-87
2022/01/29 08:47:34;;;;;;;;;;;9.00;99.90;;;;;;6161951;23;19922;-86
2022/01/29 08:50:05;;;;;;;;;;;9.00;99.90;;;;;;6186150;23;20436;-86
2022/01/29 08:52:30;;;;;;;;;;;9.00;99.90;;;;;;6185121;23;19915;-86
2022/01/29 08:54:57;;;;;;;;;;;9.10;99.90;;;;;;6182453;23;19942;-88
2022/01/29 08:57:26;;;;;;;;;;;9.10;99.90;;;;;;6182754;23;19930;-86
2022/01/29 09:00:19;;;;;;;;;;;9.10;99.90;;;;;;6186221;23;19919;-88
2022/01/29 09:05:39;;;;;;;;;;;9.20;99.90;;;;;;6191764;23;20426;-87
2022/01/29 09:08:15;;;;;;;;;;;9.20;99.90;;;;;;6181607;23;19976;-87
2022/01/29 09:10:57;;;;;;;;;;;;;;;;;;;;;
2022/01/29 09:43:47;;;;;;;;;;;9.60;99.90;;;;;;6143637;23;20323;-86
2022/01/29 09:46:59;;;;;;;;;;;;;;;;;;;;;
2022/01/29 09:50:14;;;;;;;;;;;;;;;;;;;;;
2022/01/29 10:03:20;;;;;;;;;;;9.80;99.90;;;;;;6066980;23;20259;-87
2022/01/29 10:16:08;;;;;;;;;;;;;;;;;;;;;
2022/01/29 10:19:02;;;;;;;;;;;9.90;99.90;;;;;;5919409;24;20306;-86
2022/01/29 10:22:03;;;;;;;;;;;;;;;;;;;;;
2022/01/29 10:39:24;;;;;;;;;;;10.00;99.90;;;;;;5829965;24;19920;-87
2022/01/29 10:53:06;;;;;;;;;;;;;;;;;;;;;
2022/01/29 10:58:53;;;;;;;;;;;10.20;99.90;;;;;;6202929;23;19942;-87
2022/01/29 11:01:42;;;;;;;;;;;10.20;99.90;;;;;;6168325;23;20384;-83
2022/01/29 11:04:46;;;;;;;;;;;10.20;99.90;;;;;;6191332;23;19997;-86
2022/01/29 11:07:54;;;;;;;;;;;10.20;99.90;;;;;;6213608;23;19922;-86
2022/01/29 11:15:04;;;;;;;;;;;;;;;;;;;;;
2022/01/29 11:34:02;;;;;;;;;;;;;;;;;;;;;
2022/01/29 11:40:21;;;;;;;;;;;;;;;;;;;;;
2022/01/29 11:42:57;;;;;;;;;;;10.20;99.90;;;;;;5894852;24;20343;-87
2022/01/29 11:46:11;;;;;;;;;;;10.20;99.90;;;;;;5849520;24;19911;-88
2022/01/29 11:51:43;;;;;;;;;;;;;;;;;;;;;
2022/01/29 11:55:12;;;;;;;;;;;;;;;;;;;;;
2022/01/29 11:57:59;;;;;;;;;;;;;;;;;;;;;
2022/01/29 12:00:37;;;;;;;;;;;10.20;99.90;;;;;;5861163;24;20427;-86
2022/01/29 12:03:03;;;;;;;;;;;10.30;99.90;;;;;;5892518;23;19922;-88
2022/01/29 12:09:07;;;;;;;;;;;10.30;99.90;;;;;;6062011;23;19921;-89
2022/01/29 12:25:14;;;;;;;;;;;10.40;99.90;;;;;;6027157;23;19933;-87
2022/01/29 12:27:50;;;;;;;;;;;10.50;99.90;;;;;;6078910;23;19997;-88
2022/01/29 12:30:47;;;;;;;;;;;;;;;;;;;;;
2022/01/29 12:37:34;;;;;;;;;;;10.50;99.90;;;;;;6068802;23;20137;-85
2022/01/29 12:47:25;;;;;;;;;;;10.70;99.90;;;;;;5917761;24;19919;-85
2022/01/29 13:27:52;;;;;;;;;;;10.70;99.90;;;;;;6035479;23;20394;-87
2022/01/29 13:33:53;;;;;;;;;;;;;;;;;;;;;
2022/01/29 13:36:33;;;;;;;;;;;10.80;99.90;;;;;;5993775;23;19982;-85
2022/01/29 13:39:10;;;;;;;;;;;10.80;99.90;;;;;;5940730;23;19929;-87
2022/01/29 13:41:59;;;;;;;;;;;10.80;99.90;;;;;;5966383;23;19918;-85
2022/01/29 13:44:27;;;;;;;;;;;10.80;99.90;;;;;;5961918;23;20004;-86
2022/01/29 13:47:11;;;;;;;;;;;10.80;99.90;;;;;;5962093;23;19960;-87
2022/01/29 13:49:44;;;;;;;;;;;10.80;99.90;;;;;;5939552;23;19989;-87
2022/01/29 13:52:26;;;;;;;;;;;;;;;;;;;;;
2022/01/29 13:58:02;;;;;;;;;;;10.90;99.90;;;;;;5964936;23;20337;-88
2022/01/29 14:00:28;;;;;;;;;;;11.10;99.90;;;;;;5938337;23;19922;-88
2022/01/29 14:02:54;;;;;;;;;;;11.20;99.90;;;;;;5937156;23;19998;-88
2022/01/29 14:05:59;;;;;;;;;;;11.20;99.90;;;;;;5937249;23;19958;-88
2022/01/29 14:08:52;;;;;;;;;;;11.20;99.90;;;;;;6010599;23;20400;-87
2022/01/29 14:11:20;;;;;;;;;;;11.20;99.90;;;;;;5960641;23;19918;-85
2022/01/29 14:13:48;;;;;;;;;;;11.20;99.90;;;;;;5963474;23;19997;-84
2022/01/29 14:16:36;;;;;;;;;;;11.20;99.90;;;;;;5960218;23;19967;-86
2022/01/29 14:19:19;;;;;;;;;;;11.30;99.90;;;;;;5979065;23;19922;-87
2022/01/29 14:24:48;;;;;;;;;;;;;;;;;;;;;
2022/01/29 14:27:14;;;;;;;;;;;11.40;99.90;;;;;;5974986;23;19945;-89
2022/01/29 14:29:41;;;;;;;;;;;11.30;99.90;;;;;;5955957;23;19918;-88
2022/01/29 14:32:07;;;;;;;;;;;11.30;99.90;;;;;;5956870;23;19926;-85
2022/01/29 14:34:35;;;;;;;;;;;11.30;99.90;;;;;;5977437;23;19918;-85
2022/01/29 14:37:04;;;;;;;;;;;11.30;99.90;;;;;;5955161;23;19922;-87
2022/01/29 14:39:46;;;;;;;;;;;11.30;99.90;;;;;;5955421;23;19925;-84
2022/01/29 14:42:35;;;;;;;;;;;11.30;99.90;;;;;;5977671;23;19919;-84
2022/01/29 14:45:12;;;;;;;;;;;11.20;99.90;;;;;;5967595;23;19946;-87
2022/01/29 14:47:43;;;;;;;;;;;11.30;99.90;;;;;;5953583;23;19949;-87
2022/01/29 14:50:17;;;;;;;;;;;11.30;99.90;;;;;;5960993;23;19922;-86
2022/01/29 14:52:54;;;;;;;;;;;11.30;99.90;;;;;;5933245;23;19922;-85
2022/01/29 14:56:01;;;;;;;;;;;11.40;99.90;;;;;;5955923;23;20231;-86
2022/01/29 14:58:35;;;;;;;;;;;11.40;99.90;;;;;;5979097;23;19922;-86
2022/01/29 15:01:07;;;;;;;;;;;11.40;99.90;;;;;;5957533;23;19929;-87
2022/01/29 15:03:42;;;;;;;;;;;11.40;99.90;;;;;;5957230;23;19918;-83
2022/01/29 15:06:18;;;;;;;;;;;11.40;99.90;;;;;;5935040;23;19934;-88
2022/01/29 15:08:43;;;;;;;;;;;11.50;99.90;;;;;;5933282;23;20198;-86
2022/01/29 15:11:16;;;;;;;;;;;11.50;99.90;;;;;;5951857;23;20009;-86
2022/01/29 15:13:45;;;;;;;;;;;11.50;99.90;;;;;;5954543;23;19976;-86
2022/01/29 15:16:31;;;;;;;;;;;11.50;99.90;;;;;;5955267;23;20240;-84
2022/01/29 15:18:59;;;;;;;;;;;11.50;99.90;;;;;;5975999;23;19923;-85
2022/01/29 15:21:34;;;;;;;;;;;11.50;99.90;;;;;;5956450;23;19925;-85
2022/01/29 15:24:03;;;;;;;;;;;11.40;99.90;;;;;;5954435;23;19923;-85
2022/01/29 15:26:31;;;;;;;;;;;11.40;99.90;;;;;;5957922;23;19930;-85
2022/01/29 15:29:04;;;;;;;;;;;11.40;99.90;;;;;;5956780;23;19922;-86
2022/01/29 15:34:50;;;;;;;;;;;11.40;99.90;;;;;;5970040;23;20085;-84
2022/01/29 15:37:34;;;;;;;;;;;;;;;;;;;;;
2022/01/29 15:40:24;;;;;;;;;;;11.40;99.90;;;;;;5957840;23;19925;-86
2022/01/29 15:43:15;;;;;;;;;;;11.30;99.90;;;;;;5953949;23;19922;-88
2022/01/29 15:46:04;;;;;;;;;;;11.30;99.90;;;;;;5956087;23;19923;-86
2022/01/29 15:48:37;;;;;;;;;;;11.30;99.90;;;;;;5954899;23;19919;-87
2022/01/29 15:51:18;;;;;;;;;;;11.20;99.90;;;;;;5934578;23;19958;-85
2022/01/29 15:53:55;;;;;;;;;;;11.20;99.90;;;;;;5957072;23;19993;-84
2022/01/29 15:59:07;;;;;;;;;;;11.00;99.90;;;;;;5970546;23;19952;-88
2022/01/29 16:01:52;;;;;;;;;;;11.00;99.90;;;;;;5981483;23;20518;-86
2022/01/29 16:04:44;;;;;;;;;;;10.90;99.90;;;;;;5956404;23;19926;-87
2022/01/29 16:10:24;;;;;;;;;;;;;;;;;;;;;
2022/01/29 16:13:04;;;;;;;;;;;10.80;99.90;;;;;;5980168;23;19985;-87
2022/01/29 16:18:58;;;;;;;;;;;10.70;99.90;;;;;;5963450;23;19925;-85
2022/01/29 16:24:56;;;;;;;;;;;10.60;99.90;;;;;;5961756;23;19923;-87
2022/01/29 16:30:57;;;;;;;;;;;10.50;99.90;;;;;;5943879;23;19918;-87
2022/01/29 16:33:23;;;;;;;;;;;10.50;99.90;;;;;;5936103;23;20033;-85
2022/01/29 16:35:50;;;;;;;;;;;10.50;99.90;;;;;;5949605;23;20372;-86
2022/01/29 16:38:26;;;;;;;;;;;10.40;99.90;;;;;;5953231;23;19926;-83
2022/01/29 16:40:51;;;;;;;;;;;10.40;99.90;;;;;;5951137;23;19922;-88
2022/01/29 16:43:17;;;;;;;;;;;10.40;99.90;;;;;;5952792;23;19928;-87
2022/01/29 16:45:44;;;;;;;;;;;10.30;99.90;;;;;;5928851;23;19922;-87
2022/01/29 16:48:11;;;;;;;;;;;10.30;99.90;;;;;;5930558;23;19925;-87
2022/01/29 16:50:38;;;;;;;;;;;10.20;99.90;;;;;;5951204;23;19926;-86
2022/01/29 16:53:04;;;;;;;;;;;10.10;99.90;;;;;;5949063;23;19998;-88
2022/01/29 16:55:31;;;;;;;;;;;10.10;99.90;;;;;;5926071;23;20329;-87
2022/01/29 16:58:09;;;;;;;;;;;10.10;99.90;;;;;;5978458;23;19922;-85
2022/01/29 17:00:35;;;;;;;;;;;10.00;99.90;;;;;;5951427;23;20427;-85
2022/01/29 17:03:02;;;;;;;;;;;10.00;99.90;;;;;;5930308;23;19919;-85
2022/01/29 17:05:28;;;;;;;;;;;10.00;99.90;;;;;;5929239;23;19926;-86
2022/01/29 17:07:54;;;;;;;;;;;9.90;99.90;;;;;;5956253;23;19990;-85
2022/01/29 17:10:40;;;;;;;;;;;9.90;99.90;;;;;;5977084;23;19966;-86
2022/01/29 17:13:12;;;;;;;;;;;9.80;99.90;;;;;;5953915;23;19918;-88
2022/01/29 17:15:37;;;;;;;;;;;9.80;99.90;;;;;;5921790;23;20708;-86
2022/01/29 17:18:05;;;;;;;;;;;9.80;99.90;;;;;;5926067;23;19930;-89
2022/01/29 17:20:31;;;;;;;;;;;9.70;99.90;;;;;;5925093;23;20526;-85
2022/01/29 17:22:57;;;;;;;;;;;9.60;99.90;;;;;;5922498;23;20047;-87
2022/01/29 17:25:23;;;;;;;;;;;9.60;99.90;;;;;;5945855;23;19933;-87
2022/01/29 17:27:49;;;;;;;;;;;9.50;99.90;;;;;;5950835;23;19930;-85
2022/01/29 17:30:15;;;;;;;;;;;9.40;99.90;;;;;;5952334;23;20267;-85
2022/01/29 17:32:47;;;;;;;;;;;9.40;99.90;;;;;;5928791;23;20264;-87
2022/01/29 17:35:22;;;;;;;;;;;9.30;99.90;;;;;;5951272;23;19943;-86
2022/01/29 17:38:09;;;;;;;;;;;9.20;99.90;;;;;;5976577;23;19918;-89
2022/01/29 17:41:19;;;;;;;;;;;;;;;;;;;;;
2022/01/29 17:44:15;;;;;;;;;;;9.10;99.90;;;;;;5962461;23;20239;-87
2022/01/29 17:46:47;;;;;;;;;;;9.00;99.90;;;;;;5956022;23;19978;-87
2022/01/29 17:49:34;;;;;;;;;;;8.90;99.90;;;;;;5956408;23;19989;-84
2022/01/29 17:55:14;;;;;;;;;;;8.90;99.90;;;;;;6059902;23;20316;-88
2022/01/29 17:58:23;;;;;;;;;;;8.80;99.90;;;;;;6084718;23;19925;-86
2022/01/29 18:01:29;;;;;;;;;;;8.70;99.90;;;;;;6035629;23;19921;-87
2022/01/29 18:04:02;;;;;;;;;;;8.70;99.90;;;;;;5954431;23;19926;-88
2022/01/29 18:12:28;;;;;;;;;;;8.70;99.90;;;;;;6081748;23;20333;-90
2022/01/29 18:15:17;;;;;;;;;;;8.70;99.90;;;;;;6040739;23;20250;-87
2022/01/29 18:21:43;;;;;;;;;;;8.70;99.90;;;;;;5893408;24;19920;-87
2022/01/29 18:24:49;;;;;;;;;;;;;;;;;;;;;
2022/01/29 18:27:44;;;;;;;;;;;8.60;99.90;;;;;;6062514;23;20323;-86
2022/01/29 18:30:36;;;;;;;;;;;8.60;99.90;;;;;;6038484;23;20196;-88
2022/01/29 18:36:48;;;;;;;;;;;;;;;;;;;;;
2022/01/29 18:42:39;;;;;;;;;;;8.60;99.90;;;;;;6057299;23;19921;-89
2022/01/29 18:45:15;;;;;;;;;;;8.60;99.90;;;;;;6036468;23;19929;-87
2022/01/29 18:47:42;;;;;;;;;;;8.50;99.90;;;;;;6038341;23;20219;-88
2022/01/29 18:50:30;;;;;;;;;;;8.50;99.90;;;;;;6005305;23;19929;-86
2022/01/29 18:52:57;;;;;;;;;;;8.40;99.90;;;;;;6041115;23;20105;-86
2022/01/29 18:55:33;;;;;;;;;;;8.40;99.90;;;;;;6039006;23;19917;-87
2022/01/29 18:58:32;;;;;;;;;;;8.40;99.90;;;;;;6043606;23;19924;-86
2022/01/29 19:01:28;;;;;;;;;;;8.40;99.90;;;;;;6036817;23;19917;-86
2022/01/29 19:04:09;;;;;;;;;;;8.40;99.90;;;;;;6059772;23;20406;-86
2022/01/29 19:06:57;;;;;;;;;;;8.30;99.90;;;;;;6033594;23;20304;-85
2022/01/29 19:09:34;;;;;;;;;;;8.30;99.90;;;;;;6039005;23;19917;-87
2022/01/29 19:12:10;;;;;;;;;;;8.30;99.90;;;;;;6027274;23;20299;-87
2022/01/29 19:14:36;;;;;;;;;;;8.30;99.90;;;;;;6063569;23;20458;-86
2022/01/29 19:17:05;;;;;;;;;;;8.30;99.90;;;;;;6062003;23;19917;-85
2022/01/29 19:19:31;;;;;;;;;;;8.30;99.90;;;;;;6085048;23;19936;-85
2022/01/29 19:28:24;;;;;;;;;;;8.30;99.90;;;;;;6065353;23;19921;-87
2022/01/29 19:31:15;;;;;;;;;;;8.40;99.90;;;;;;6027417;23;19936;-85
2022/01/29 19:34:16;;;;;;;;;;;8.40;99.90;;;;;;6057431;23;19921;-85
2022/01/29 19:39:40;;;;;;;;;;;8.40;99.90;;;;;;6066488;23;20390;-85
2022/01/29 19:42:16;;;;;;;;;;;8.40;99.90;;;;;;6086299;23;19917;-86
2022/01/29 19:44:52;;;;;;;;;;;8.20;99.90;;;;;;6062896;23;19921;-86
2022/01/29 19:47:17;;;;;;;;;;;8.00;99.90;;;;;;6064728;23;20227;-85
2022/01/29 19:53:37;;;;;;;;;;;7.30;99.90;;;;;;6030310;23;19917;-84
2022/01/29 19:59:34;;;;;;;;;;;7.00;99.90;;;;;;6086208;23;19917;-86
2022/01/29 20:05:26;;;;;;;;;;;6.70;99.90;;;;;;5996255;23;19926;-85
2022/01/29 20:12:02;;;;;;;;;;;6.60;99.90;;;;;;6058217;23;19933;-87
2022/01/29 20:14:42;;;;;;;;;;;6.40;99.90;;;;;;6061008;23;20399;-85
2022/01/29 20:17:32;;;;;;;;;;;6.40;99.90;;;;;;6085333;23;20303;-88
2022/01/29 20:20:10;;;;;;;;;;;;;;;;;;;;;
2022/01/29 20:26:02;;;;;;;;;;;6.40;99.90;;;;;;5999972;23;20012;-86